Time;durP1;ratioP1;P1;durP2;ratioP2;P2;SDS_P1;SDS_P2;PMS_P1;PMS_P2;Temp;Humidity;BMP_temperature;BMP_pressure;BME280_temperature;BME280_humidity;BME280_pressure;Samples;Min_cycle;Max_cycle;Signal;HPM_P1;HPM_P2
2022/12/22 03:26:03;;;;;;;5.75;1.10;;;28.10;67.00;;;;;;5055219;28;20949;-84
2022/12/22 03:28:30;;;;;;;7.85;1.30;;;28.30;66.70;;;;;;5070357;28;20393;-84
2022/12/22 03:31:03;;;;;;;6.97;1.17;;;28.10;67.00;;;;;;5071204;28;20366;-85
2022/12/22 03:33:31;;;;;;;6.65;1.00;;;28.10;65.50;;;;;;5074242;28;20378;-86
2022/12/22 03:35:59;;;;;;;2.60;1.00;;;27.90;65.20;;;;;;5074011;28;20376;-85
2022/12/22 03:38:26;;;;;;;6.00;1.17;;;27.40;66.40;;;;;;5073983;28;20503;-86
2022/12/22 03:40:54;;;;;;;3.87;0.90;;;27.40;66.90;;;;;;5073865;28;20789;-84
2022/12/22 03:48:36;;;;;;;5.80;1.00;;;27.00;66.80;;;;;;5074619;28;20452;-85
2022/12/22 03:51:03;;;;;;;5.43;1.10;;;26.90;66.80;;;;;;5074808;28;20378;-84
2022/12/22 03:53:29;;;;;;;4.63;0.90;;;26.60;67.60;;;;;;5074251;28;20378;-85
2022/12/22 03:55:56;;;;;;;3.60;0.85;;;26.70;67.80;;;;;;5074663;28;20574;-86
2022/12/22 03:58:23;;;;;;;3.63;0.90;;;26.90;67.30;;;;;;5071129;28;20467;-85
2022/12/22 04:00:50;;;;;;;3.72;0.90;;;26.90;67.10;;;;;;5076757;28;20376;-82
2022/12/22 04:03:17;;;;;;;4.65;0.93;;;26.90;67.10;;;;;;5048914;28;20389;-82
2022/12/22 04:05:45;;;;;;;4.10;1.00;;;26.70;67.80;;;;;;5080750;28;20438;-83
2022/12/22 04:08:12;;;;;;;2.57;0.90;;;26.70;68.10;;;;;;5069465;28;21119;-85
2022/12/22 04:13:25;;;;;;;3.30;1.02;;;26.80;67.10;;;;;;5069312;28;20408;-88
2022/12/22 04:15:52;;;;;;;4.85;1.00;;;26.60;67.50;;;;;;5073259;28;20401;-85
2022/12/22 04:18:19;;;;;;;3.37;0.87;;;26.50;67.90;;;;;;5067397;28;20478;-85
2022/12/22 04:20:46;;;;;;;3.80;1.00;;;26.30;68.50;;;;;;5073651;28;20413;-86
2022/12/22 04:23:12;;;;;;;3.00;1.08;;;26.10;69.30;;;;;;5068723;28;20381;-84
2022/12/22 04:25:39;;;;;;;6.30;0.95;;;25.80;70.00;;;;;;5073312;28;20726;-85
2022/12/22 04:28:06;;;;;;;4.95;1.20;;;25.80;71.00;;;;;;5060634;28;20379;-88
2022/12/22 04:30:33;;;;;;;3.17;0.90;;;25.70;72.80;;;;;;5067170;28;20394;-85
2022/12/22 04:33:00;;;;;;;3.38;1.08;;;25.70;73.40;;;;;;5062356;28;20383;-86
2022/12/22 04:35:27;;;;;;;4.18;0.90;;;25.50;74.20;;;;;;5062978;28;20448;-84
2022/12/22 04:37:54;;;;;;;4.05;1.10;;;25.40;75.70;;;;;;5069215;28;20419;-89
2022/12/22 04:40:21;;;;;;;3.10;1.13;;;25.10;76.30;;;;;;5072151;28;20440;-83
2022/12/22 04:42:48;;;;;;;2.93;1.07;;;24.80;78.10;;;;;;5075044;28;20370;-87
2022/12/22 04:45:15;;;;;;;5.60;1.25;;;24.60;77.90;;;;;;5083885;28;20400;-85
2022/12/22 04:47:42;;;;;;;3.58;1.10;;;24.40;78.50;;;;;;5070403;28;20777;-88
2022/12/22 04:50:09;;;;;;;5.70;1.10;;;24.30;78.20;;;;;;5068221;28;20382;-85
2022/12/22 04:52:36;;;;;;;4.50;1.20;;;24.20;78.70;;;;;;5072641;28;20386;-84
2022/12/22 04:55:05;;;;;;;4.50;1.10;;;24.20;78.80;;;;;;5072205;28;20906;-85
2022/12/22 04:57:32;;;;;;;3.78;1.20;;;24.20;79.40;;;;;;5063628;28;21439;-85
2022/12/22 04:59:59;;;;;;;3.42;1.17;;;24.20;81.00;;;;;;5067714;28;20496;-82
2022/12/22 05:02:26;;;;;;;3.55;1.23;;;24.10;82.30;;;;;;5077697;28;20383;-85
2022/12/22 05:04:53;;;;;;;4.22;1.10;;;23.90;83.90;;;;;;5068644;28;20923;-85
2022/12/22 05:07:20;;;;;;;3.40;1.27;;;23.80;84.50;;;;;;5087116;28;20380;-86
2022/12/22 05:09:47;;;;;;;10.90;2.28;;;23.80;87.10;;;;;;5080535;28;20388;-87
2022/12/22 05:14:58;;;;;;;3.92;1.23;;;23.40;88.40;;;;;;5074363;28;20384;-87
2022/12/22 05:17:25;;;;;;;4.40;1.30;;;23.40;88.70;;;;;;5078856;28;20365;-84
2022/12/22 05:19:52;;;;;;;3.70;1.23;;;23.40;88.90;;;;;;5077726;28;20884;-87
2022/12/22 05:22:19;;;;;;;4.47;1.15;;;23.30;89.50;;;;;;5091780;28;20368;-84
2022/12/22 05:24:46;;;;;;;2.72;1.10;;;23.40;90.00;;;;;;5086852;28;20864;-87
2022/12/22 05:27:13;;;;;;;3.90;1.38;;;23.20;89.30;;;;;;5091454;28;20376;-85
2022/12/22 05:29:40;;;;;;;4.20;1.30;;;23.10;89.40;;;;;;5086456;28;20466;-82
2022/12/22 05:32:07;;;;;;;5.90;1.20;;;22.90;90.40;;;;;;5074359;28;20464;-85
2022/12/22 05:34:34;;;;;;;3.50;1.30;;;22.80;90.80;;;;;;5089914;28;20415;-86
2022/12/22 05:37:01;;;;;;;5.50;1.30;;;22.70;91.40;;;;;;5091351;28;20367;-85
2022/12/22 05:39:28;;;;;;;5.88;1.27;;;22.70;91.50;;;;;;5086218;28;20868;-84
2022/12/22 05:41:55;;;;;;;6.70;1.10;;;22.70;91.40;;;;;;5068736;28;20389;-85
2022/12/22 05:44:21;;;;;;;3.15;1.15;;;22.70;91.20;;;;;;5062311;28;20438;-86
2022/12/22 05:46:52;;;;;;;4.25;1.25;;;22.60;91.90;;;;;;5061334;28;20424;-84
2022/12/22 05:49:19;;;;;;;3.20;1.17;;;22.60;91.90;;;;;;5071712;28;20388;-85
2022/12/22 05:51:46;;;;;;;5.85;1.10;;;22.60;91.80;;;;;;5080486;28;20856;-85
2022/12/22 05:54:13;;;;;;;6.90;1.50;;;22.70;91.40;;;;;;5071805;28;20856;-85
2022/12/22 05:56:40;;;;;;;9.00;1.52;;;22.60;91.10;;;;;;5063798;28;20933;-85
2022/12/22 05:59:07;;;;;;;10.73;2.13;;;22.20;92.50;;;;;;5071500;28;20416;-84
2022/12/22 06:01:34;;;;;;;18.25;1.98;;;21.90;94.00;;;;;;5071148;28;21185;-83
2022/12/22 06:04:01;;;;;;;17.85;2.40;;;21.50;95.20;;;;;;5070916;28;20373;-84
2022/12/22 06:06:29;;;;;;;23.98;3.00;;;21.20;96.70;;;;;;5062532;28;20909;-83
2022/12/22 06:08:56;;;;;;;17.83;2.67;;;21.00;98.20;;;;;;5084797;28;20898;-84
2022/12/22 06:11:23;;;;;;;16.48;2.60;;;20.90;99.60;;;;;;5065903;28;20440;-87
2022/12/22 06:13:50;;;;;;;11.82;1.92;;;20.90;99.90;;;;;;5069685;28;20422;-85
2022/12/22 06:16:17;;;;;;;13.55;1.83;;;20.70;99.90;;;;;;5070536;28;20386;-86
2022/12/22 06:18:44;;;;;;;11.57;1.83;;;20.70;99.90;;;;;;5068855;28;20398;-80
2022/12/22 06:21:11;;;;;;;13.30;1.75;;;20.70;99.90;;;;;;5074725;28;20928;-83
2022/12/22 06:23:38;;;;;;;10.63;2.00;;;20.70;99.90;;;;;;5074739;28;20396;-83
2022/12/22 06:26:05;;;;;;;8.55;1.50;;;20.80;99.90;;;;;;5074504;28;20460;-83
2022/12/22 06:28:32;;;;;;;8.55;1.77;;;20.80;99.90;;;;;;5069790;28;20378;-83
2022/12/22 06:30:59;;;;;;;5.75;1.63;;;20.90;99.90;;;;;;5070920;28;20412;-83
2022/12/22 06:33:26;;;;;;;7.85;1.60;;;20.90;99.90;;;;;;5071054;28;20444;-83
2022/12/22 06:35:53;;;;;;;11.40;1.67;;;20.90;99.90;;;;;;5070997;28;20382;-83
2022/12/22 06:38:19;;;;;;;5.63;1.38;;;20.90;99.90;;;;;;5069614;28;20389;-83
2022/12/22 06:40:47;;;;;;;7.38;1.55;;;20.80;99.90;;;;;;5069348;28;20383;-84
2022/12/22 06:43:14;;;;;;;3.67;1.10;;;20.80;99.90;;;;;;5058625;28;20378;-85
2022/12/22 06:45:43;;;;;;;4.88;1.30;;;20.70;99.90;;;;;;5064240;28;20393;-85
2022/12/22 06:48:12;;;;;;;6.22;1.50;;;20.60;99.90;;;;;;5064341;28;20532;-87
2022/12/22 06:50:39;;;;;;;5.20;1.30;;;20.50;99.90;;;;;;5071149;28;20746;-86
2022/12/22 06:53:07;;;;;;;4.95;1.17;;;20.50;99.90;;;;;;5056747;28;20401;-84
2022/12/22 06:55:34;;;;;;;3.88;1.00;;;20.40;99.90;;;;;;5070606;28;20378;-83
2022/12/22 06:58:01;;;;;;;3.38;1.20;;;20.40;99.90;;;;;;5070376;28;20398;-82
2022/12/22 07:00:28;;;;;;;4.07;1.20;;;20.30;99.90;;;;;;5070280;28;20828;-82
2022/12/22 07:02:55;;;;;;;4.00;1.10;;;20.30;99.90;;;;;;5069719;28;20394;-84
2022/12/22 07:05:23;;;;;;;3.55;1.27;;;20.20;99.90;;;;;;5069946;28;20456;-85
2022/12/22 07:07:51;;;;;;;3.17;1.20;;;20.20;99.90;;;;;;5070695;28;20377;-84
2022/12/22 07:10:18;;;;;;;4.30;1.20;;;20.10;99.90;;;;;;5066443;28;20400;-84
2022/12/22 07:12:45;;;;;;;3.55;1.10;;;20.10;99.90;;;;;;5082296;28;20366;-83
2022/12/22 07:15:11;;;;;;;10.27;3.60;;;20.00;99.90;;;;;;5070633;28;20447;-83
2022/12/22 07:17:40;;;;;;;12.35;5.30;;;19.90;99.90;;;;;;5070930;28;20428;-83
2022/12/22 07:20:08;;;;;;;18.00;11.50;;;19.90;99.90;;;;;;5072274;28;20400;-83
2022/12/22 07:22:35;;;;;;;7.80;2.88;;;19.90;99.90;;;;;;5068813;28;20386;-83
2022/12/22 07:25:01;;;;;;;5.40;2.15;;;19.80;99.90;;;;;;5070864;28;20383;-83
2022/12/22 07:27:28;;;;;;;6.53;2.10;;;19.70;99.90;;;;;;5070972;28;20393;-83
2022/12/22 07:29:55;;;;;;;7.35;3.20;;;19.70;99.90;;;;;;5066872;28;20408;-84
2022/12/22 07:32:22;;;;;;;6.40;3.28;;;19.70;99.90;;;;;;5071143;28;20729;-84
2022/12/22 07:34:49;;;;;;;6.88;1.92;;;19.70;99.90;;;;;;5070284;28;20472;-84
2022/12/22 07:37:16;;;;;;;6.28;1.75;;;19.70;99.90;;;;;;5067577;28;20898;-85
2022/12/22 07:39:44;;;;;;;5.82;2.00;;;19.70;99.90;;;;;;5070963;28;20410;-84
2022/12/22 07:44:59;;;;;;;3.97;1.88;;;19.50;99.90;;;;;;5062304;28;20357;-84
2022/12/22 07:47:26;;;;;;;6.97;1.90;;;19.40;99.90;;;;;;5071862;28;20789;-85
2022/12/22 07:50:26;;;;;;;5.30;1.70;;;19.30;99.90;;;;;;5070094;28;20386;-84
2022/12/22 07:52:46;;;;;;;5.13;2.00;;;19.10;99.90;;;;;;5066122;28;20436;-84
2022/12/22 07:55:13;;;;;;;7.68;2.70;;;18.90;99.90;;;;;;5064316;28;20386;-83
2022/12/22 07:57:41;;;;;;;6.38;1.80;;;18.80;99.90;;;;;;5073946;28;20384;-83
2022/12/22 08:00:08;;;;;;;4.85;1.67;;;18.80;99.90;;;;;;5061534;28;20415;-84
2022/12/22 08:02:35;;;;;;;4.28;1.65;;;18.80;99.90;;;;;;5081183;28;20522;-85
2022/12/22 08:05:03;;;;;;;6.93;1.98;;;18.80;99.90;;;;;;5077821;28;20470;-83
2022/12/22 08:07:31;;;;;;;3.67;1.63;;;18.80;99.90;;;;;;5076914;28;20381;-83
2022/12/22 08:09:58;;;;;;;5.93;1.88;;;18.80;99.90;;;;;;5036110;28;20419;-83
2022/12/22 08:12:26;;;;;;;5.13;1.75;;;18.80;99.90;;;;;;5082249;28;20396;-83
2022/12/22 08:14:54;;;;;;;6.07;1.80;;;18.80;99.90;;;;;;5056234;28;20466;-82
2022/12/22 08:17:21;;;;;;;4.93;1.90;;;18.70;99.90;;;;;;5072999;28;20411;-82
2022/12/22 08:19:48;;;;;;;5.15;2.03;;;18.70;99.90;;;;;;5072564;28;20543;-82
2022/12/22 08:22:15;;;;;;;5.23;2.63;;;18.60;99.90;;;;;;5081675;28;20453;-83
2022/12/22 08:24:42;;;;;;;10.07;4.60;;;18.60;99.90;;;;;;5090808;28;20405;-83
2022/12/22 08:27:15;;;;;;;6.18;3.53;;;18.70;99.90;;;;;;5061356;28;20421;-82
2022/12/22 08:29:46;;;;;;;5.43;2.40;;;18.70;99.90;;;;;;5073675;28;20407;-83
2022/12/22 08:32:13;;;;;;;6.13;2.13;;;18.70;99.90;;;;;;5058098;28;20380;-83
2022/12/22 08:34:40;;;;;;;5.75;1.70;;;18.70;99.90;;;;;;5067529;28;20830;-83
2022/12/22 08:37:12;;;;;;;4.63;2.08;;;18.70;99.90;;;;;;5073383;28;20940;-83
2022/12/22 08:39:41;;;;;;;7.18;2.30;;;18.60;99.90;;;;;;5082690;28;20495;-83
2022/12/22 08:42:10;;;;;;;5.37;2.40;;;18.60;99.90;;;;;;5055663;28;20434;-83
2022/12/22 08:44:38;;;;;;;4.60;2.13;;;18.60;99.90;;;;;;5081891;28;20393;-83
2022/12/22 08:47:05;;;;;;;5.03;2.08;;;18.50;99.90;;;;;;5072157;28;20420;-83
2022/12/22 08:49:33;;;;;;;5.40;2.10;;;18.50;99.90;;;;;;5070201;28;20883;-83
2022/12/22 08:52:00;;;;;;;5.33;1.97;;;18.50;99.90;;;;;;5078389;28;20414;-81
2022/12/22 08:54:27;;;;;;;8.07;2.00;;;18.50;99.90;;;;;;5072348;28;20417;-82
2022/12/22 08:56:57;;;;;;;5.47;1.90;;;18.50;99.90;;;;;;5052481;28;20507;-82
2022/12/22 08:59:27;;;;;;;5.75;2.00;;;18.50;99.90;;;;;;5068783;28;20460;-82
2022/12/22 09:01:54;;;;;;;6.47;2.70;;;18.50;99.90;;;;;;5049636;28;20396;-83
2022/12/22 09:04:25;;;;;;;12.35;7.60;;;18.60;99.90;;;;;;5063449;28;20390;-83
2022/12/22 09:06:52;;;;;;;82.47;54.83;;;18.60;99.90;;;;;;5068373;28;20386;-83
2022/12/22 09:09:20;;;;;;;51.83;34.90;;;18.50;99.90;;;;;;5052809;28;20475;-83
2022/12/22 09:11:48;;;;;;;37.60;29.15;;;18.50;99.90;;;;;;5065835;28;20382;-83
2022/12/22 09:14:15;;;;;;;25.38;17.15;;;18.50;99.90;;;;;;5066327;28;20397;-82
2022/12/22 09:16:43;;;;;;;12.60;7.40;;;18.40;99.90;;;;;;5067742;28;20740;-83
2022/12/22 09:19:10;;;;;;;13.32;8.13;;;18.40;99.90;;;;;;5067762;28;20420;-82
2022/12/22 09:21:37;;;;;;;8.43;4.20;;;18.40;99.90;;;;;;5071121;28;20730;-82
2022/12/22 09:24:06;;;;;;;10.15;2.90;;;18.40;99.90;;;;;;5060760;28;20377;-82
2022/12/22 09:26:33;;;;;;;6.65;2.50;;;18.30;99.90;;;;;;5071343;28;20416;-82
2022/12/22 09:29:00;;;;;;;4.80;2.65;;;18.30;99.90;;;;;;5053227;28;20484;-82
2022/12/22 09:31:28;;;;;;;7.15;2.22;;;18.40;99.90;;;;;;5069965;28;20390;-84
2022/12/22 09:33:56;;;;;;;4.68;1.88;;;18.40;99.90;;;;;;5053515;28;20382;-83
2022/12/22 09:36:26;;;;;;;5.90;2.33;;;18.40;99.90;;;;;;5067327;28;20900;-82
2022/12/22 09:38:53;;;;;;;6.03;3.58;;;18.30;99.90;;;;;;5068819;28;20433;-82
2022/12/22 09:41:23;;;;;;;5.65;2.47;;;18.30;99.90;;;;;;5064240;28;20394;-82
2022/12/22 09:43:50;;;;;;;5.85;2.40;;;18.30;99.90;;;;;;5069611;28;20378;-83
2022/12/22 09:46:30;;;;;;;5.80;1.80;;;18.30;99.90;;;;;;5070194;28;20470;-83
2022/12/22 09:48:58;;;;;;;4.80;1.80;;;18.30;99.90;;;;;;5059829;28;20495;-83
2022/12/22 09:51:25;;;;;;;4.80;2.22;;;18.20;99.90;;;;;;5067290;28;20386;-84
2022/12/22 09:53:59;;;;;;;7.20;2.78;;;18.20;99.90;;;;;;5071606;28;20741;-81
2022/12/22 09:56:28;;;;;;;7.57;3.30;;;18.10;99.90;;;;;;5061269;28;20382;-81
2022/12/22 09:58:57;;;;;;;6.32;2.80;;;18.10;99.90;;;;;;5064148;28;20480;-83
2022/12/22 10:01:36;;;;;;;5.55;2.40;;;18.00;99.90;;;;;;5069681;28;20517;-82
2022/12/22 10:04:22;;;;;;;5.55;2.83;;;18.00;99.90;;;;;;5070653;28;20722;-82
2022/12/22 10:07:12;;;;;;;28.10;16.55;;;18.00;99.90;;;;;;5063196;28;20376;-82
2022/12/22 10:09:39;;;;;;;6.97;4.30;;;18.00;99.90;;;;;;5063715;28;20416;-82
2022/12/22 10:12:13;;;;;;;9.50;5.20;;;17.90;99.90;;;;;;5063836;28;20473;-82
2022/12/22 10:14:46;;;;;;;6.07;2.60;;;17.90;99.90;;;;;;5059366;28;20449;-84
2022/12/22 10:17:33;;;;;;;4.97;2.40;;;17.90;99.90;;;;;;5064748;28;20943;-82
2022/12/22 10:20:26;;;;;;;7.85;2.40;;;17.80;99.90;;;;;;5061958;28;20490;-81
2022/12/22 10:23:22;;;;;;;8.02;2.70;;;17.80;99.90;;;;;;5067197;28;20374;-81
2022/12/22 10:25:59;;;;;;;6.05;2.90;;;17.80;99.90;;;;;;4991479;28;20416;-81
2022/12/22 10:28:36;;;;;;;7.45;3.20;;;17.70;99.90;;;;;;5003349;28;20410;-82
2022/12/22 10:31:13;;;;;;;9.63;4.22;;;17.70;99.90;;;;;;5004921;28;20406;-82
2022/12/22 10:33:41;;;;;;;7.78;4.32;;;17.70;99.90;;;;;;4993044;28;20416;-82
2022/12/22 10:36:09;;;;;;;11.48;5.55;;;17.70;99.90;;;;;;4991945;28;20415;-82
2022/12/22 10:38:52;;;;;;;11.38;7.70;;;17.70;99.90;;;;;;4998400;28;20797;-82
2022/12/22 10:41:26;;;;;;;10.23;6.40;;;17.70;99.90;;;;;;4991042;28;20440;-83
2022/12/22 10:44:01;;;;;;;10.50;6.93;;;17.60;99.90;;;;;;4991784;28;20404;-82
2022/12/22 10:46:37;;;;;;;13.65;7.72;;;17.60;99.90;;;;;;4990015;28;20435;-82
2022/12/22 10:49:20;;;;;;;10.90;6.68;;;17.60;99.90;;;;;;4996028;28;20393;-83
2022/12/22 10:52:09;;;;;;;12.32;6.80;;;17.70;99.90;;;;;;5002786;28;20489;-83
2022/12/22 10:54:39;;;;;;;11.30;6.60;;;17.70;99.90;;;;;;4994885;28;20401;-83
2022/12/22 10:57:15;;;;;;;14.85;7.60;;;17.70;99.90;;;;;;4998074;28;20435;-83
2022/12/22 10:59:57;;;;;;;12.18;7.57;;;17.60;99.90;;;;;;4996618;28;20548;-82
2022/12/22 11:02:25;;;;;;;13.85;9.20;;;17.60;99.90;;;;;;5033824;28;20398;-83
2022/12/22 11:04:54;;;;;;;15.95;12.05;;;17.60;99.90;;;;;;5062837;28;20381;-83
2022/12/22 11:07:22;;;;;;;14.55;10.32;;;17.60;99.90;;;;;;5050271;28;20382;-83
2022/12/22 11:09:49;;;;;;;12.23;7.65;;;17.60;99.90;;;;;;5069902;28;20726;-84
2022/12/22 11:12:34;;;;;;;10.98;6.60;;;17.60;99.90;;;;;;5058581;28;20477;-81
2022/12/22 11:15:16;;;;;;;9.77;6.40;;;17.60;99.90;;;;;;5068786;28;20390;-82
2022/12/22 11:18:12;;;;;;;11.18;5.15;;;17.60;99.90;;;;;;5067582;28;20405;-82
2022/12/22 11:20:48;;;;;;;9.32;4.82;;;17.60;99.90;;;;;;5062129;28;20414;-82
2022/12/22 11:23:28;;;;;;;9.35;4.68;;;17.60;99.90;;;;;;5062820;28;20487;-82
2022/12/22 11:26:16;;;;;;;8.93;4.43;;;17.60;99.90;;;;;;5064337;28;20392;-83
2022/12/22 11:29:24;;;;;;;7.20;4.18;;;17.60;99.90;;;;;;5054135;28;20392;-82
2022/12/22 11:32:20;;;;;;;6.05;3.90;;;17.50;99.90;;;;;;5005406;28;20485;-83
2022/12/22 11:35:16;;;;;;;9.25;4.38;;;17.50;99.90;;;;;;4994154;28;20437;-82
2022/12/22 11:38:33;;;;;;;8.90;4.20;;;17.50;99.90;;;;;;4998027;28;20893;-82
2022/12/22 11:41:38;;;;;;;7.70;3.90;;;17.40;99.90;;;;;;4930343;29;20410;-82
2022/12/22 11:44:30;;;;;;;8.40;3.80;;;17.30;99.90;;;;;;4854945;29;20885;-81
2022/12/22 11:47:18;;;;;;;8.60;4.80;;;17.20;99.90;;;;;;4854892;29;20423;-81
2022/12/22 11:50:03;;;;;;;7.88;4.07;;;17.20;99.90;;;;;;4853799;29;20413;-82
2022/12/22 11:52:39;;;;;;;8.20;5.00;;;17.20;99.90;;;;;;4855441;29;20499;-82
2022/12/22 11:55:09;;;;;;;7.20;4.60;;;17.10;99.90;;;;;;4858322;29;20400;-81
2022/12/22 11:58:00;;;;;;;7.20;4.65;;;17.10;99.90;;;;;;4858424;29;20408;-81
2022/12/22 12:00:33;;;;;;;10.25;5.07;;;17.10;99.90;;;;;;4857346;29;20432;-82
2022/12/22 12:03:22;;;;;;;10.10;5.25;;;17.00;99.90;;;;;;4858417;29;20412;-81
2022/12/22 12:06:14;;;;;;;9.53;5.30;;;17.00;99.90;;;;;;4858396;29;20415;-82
2022/12/22 12:09:06;;;;;;;8.60;5.47;;;17.00;99.90;;;;;;4883650;29;20844;-81
2022/12/22 12:11:42;;;;;;;7.57;5.43;;;17.00;99.90;;;;;;4918988;29;20395;-81
2022/12/22 12:14:24;;;;;;;8.73;5.50;;;17.00;99.90;;;;;;4914143;29;20458;-82
2022/12/22 12:17:10;;;;;;;6.93;5.20;;;17.00;99.90;;;;;;4932802;28;20476;-81
2022/12/22 12:19:55;;;;;;;7.53;4.93;;;16.90;99.90;;;;;;4983610;28;20430;-81
2022/12/22 12:22:39;;;;;;;8.98;5.03;;;16.90;99.90;;;;;;5066033;28;20474;-81
2022/12/22 12:25:38;;;;;;;9.00;5.00;;;16.90;99.90;;;;;;5073959;28;20427;-81
2022/12/22 12:28:31;;;;;;;8.18;4.90;;;16.90;99.90;;;;;;5015270;28;20390;-81
2022/12/22 12:31:00;;;;;;;8.17;4.83;;;16.90;99.90;;;;;;5010849;28;20402;-81
2022/12/22 12:33:30;;;;;;;8.17;5.20;;;16.80;99.90;;;;;;5029457;28;20389;-81
2022/12/22 12:36:10;;;;;;;8.50;5.15;;;16.80;99.90;;;;;;5030653;28;20734;-81
2022/12/22 12:39:25;;;;;;;8.75;5.10;;;16.80;99.90;;;;;;5041729;28;20389;-82
2022/12/22 12:42:15;;;;;;;11.18;5.90;;;16.80;99.90;;;;;;4948546;29;20401;-82
2022/12/22 12:44:44;;;;;;;9.18;5.45;;;16.80;99.90;;;;;;4951067;29;20419;-82
2022/12/22 12:47:23;;;;;;;10.38;5.10;;;16.80;99.90;;;;;;4948490;29;21015;-80
2022/12/22 12:50:25;;;;;;;7.55;5.00;;;16.80;99.90;;;;;;4942595;29;20400;-82
2022/12/22 12:52:52;;;;;;;7.85;4.82;;;16.80;99.90;;;;;;4941814;29;20408;-82
2022/12/22 12:55:40;;;;;;;6.80;4.68;;;16.80;99.90;;;;;;4945665;29;20411;-82
2022/12/22 12:58:11;;;;;;;8.05;4.70;;;16.80;99.90;;;;;;4949632;29;20464;-81
2022/12/22 13:00:40;;;;;;;6.95;4.63;;;16.80;99.90;;;;;;4947182;29;20464;-84
2022/12/22 13:03:31;;;;;;;7.20;4.30;;;16.80;99.90;;;;;;4936681;29;20804;-82
2022/12/22 13:06:07;;;;;;;8.10;3.73;;;16.80;99.90;;;;;;4966061;28;20796;-82
2022/12/22 13:09:06;;;;;;;7.13;4.05;;;17.00;99.90;;;;;;4965832;28;20391;-83
2022/12/22 13:11:37;;;;;;;6.22;3.90;;;17.00;99.90;;;;;;4975359;28;20452;-83
2022/12/22 13:14:05;;;;;;;6.03;3.90;;;17.00;99.90;;;;;;5048876;28;20871;-81
2022/12/22 13:16:35;;;;;;;8.35;3.80;;;17.00;99.90;;;;;;5039464;28;20392;-83
2022/12/22 13:19:10;;;;;;;7.72;3.47;;;17.00;99.90;;;;;;5036739;28;20411;-82
2022/12/22 13:21:44;;;;;;;7.43;3.50;;;17.00;99.90;;;;;;5049529;28;20470;-81
2022/12/22 13:24:20;;;;;;;9.98;3.70;;;17.00;99.90;;;;;;5049639;28;20388;-83
2022/12/22 13:26:50;;;;;;;5.15;3.38;;;17.00;99.90;;;;;;5046118;28;20392;-83
2022/12/22 13:29:23;;;;;;;7.88;3.70;;;17.00;99.90;;;;;;5044579;28;20392;-82
2022/12/22 13:32:01;;;;;;;5.75;3.40;;;17.00;99.90;;;;;;5048299;28;20392;-81
2022/12/22 13:34:40;;;;;;;5.68;3.00;;;17.00;99.90;;;;;;5044698;28;20967;-81
2022/12/22 13:37:13;;;;;;;7.18;3.40;;;17.00;99.90;;;;;;5038594;28;20389;-83
2022/12/22 13:39:40;;;;;;;8.48;3.08;;;17.10;99.90;;;;;;5039801;28;20411;-83
2022/12/22 13:42:11;;;;;;;5.43;2.80;;;17.10;99.90;;;;;;5033960;28;20389;-83
2022/12/22 13:44:39;;;;;;;7.05;3.00;;;17.10;99.90;;;;;;5040379;28;20400;-82
2022/12/22 13:47:13;;;;;;;7.90;3.10;;;17.20;99.90;;;;;;5039220;28;20385;-81
2022/12/22 13:49:42;;;;;;;7.45;3.33;;;17.20;99.90;;;;;;5067328;28;20374;-83
2022/12/22 13:52:17;;;;;;;6.95;3.75;;;17.20;99.90;;;;;;5065482;28;20394;-82
2022/12/22 13:54:45;;;;;;;7.53;4.13;;;17.10;99.90;;;;;;5061723;28;20366;-83
2022/12/22 13:57:19;;;;;;;9.50;3.78;;;17.10;99.90;;;;;;5068917;28;20412;-84
2022/12/22 13:59:49;;;;;;;6.63;3.60;;;17.10;99.90;;;;;;5060884;28;20410;-82
2022/12/22 14:02:19;;;;;;;5.33;3.80;;;17.00;99.90;;;;;;5067013;28;20873;-83
2022/12/22 14:05:11;;;;;;;7.85;3.83;;;17.00;99.90;;;;;;5053768;28;20841;-84
2022/12/22 14:07:38;;;;;;;6.93;3.75;;;17.00;99.90;;;;;;5066444;28;20381;-84
2022/12/22 14:10:06;;;;;;;6.70;3.33;;;16.90;99.90;;;;;;5070352;28;20409;-84
2022/12/22 14:12:45;;;;;;;5.95;3.10;;;16.90;99.90;;;;;;5070303;28;20494;-82
2022/12/22 14:15:18;;;;;;;4.82;3.30;;;17.00;99.90;;;;;;5064440;28;20372;-83
2022/12/22 14:17:45;;;;;;;7.53;3.60;;;17.00;99.90;;;;;;5068395;28;20798;-82
2022/12/22 14:20:25;;;;;;;7.10;3.70;;;17.10;99.90;;;;;;5053032;28;20459;-83
2022/12/22 14:23:13;;;;;;;16.30;5.07;;;17.10;99.90;;;;;;5058150;28;20382;-82
2022/12/22 14:25:43;;;;;;;14.27;5.15;;;17.10;99.90;;;;;;5066045;28;20434;-82
2022/12/22 14:28:30;;;;;;;10.57;4.68;;;17.10;99.90;;;;;;5072589;28;20743;-83
2022/12/22 14:31:00;;;;;;;13.77;5.10;;;17.10;99.90;;;;;;5064829;28;20876;-83
2022/12/22 14:33:35;;;;;;;15.60;5.80;;;17.10;99.90;;;;;;5069426;28;20389;-82
2022/12/22 14:36:15;;;;;;;17.23;5.93;;;17.10;99.90;;;;;;5059968;28;20380;-83
2022/12/22 14:38:46;;;;;;;12.00;5.40;;;17.10;99.90;;;;;;5058631;28;20378;-81
2022/12/22 14:41:50;;;;;;;14.57;5.68;;;17.00;99.90;;;;;;5061297;28;20394;-83
2022/12/22 14:44:24;;;;;;;16.97;6.47;;;17.00;99.90;;;;;;5065708;28;20462;-82
2022/12/22 14:47:19;;;;;;;15.03;5.93;;;16.90;99.90;;;;;;5061775;28;20753;-82
2022/12/22 14:49:50;;;;;;;13.95;6.78;;;16.90;99.90;;;;;;5060024;28;20390;-82
2022/12/22 14:52:56;;;;;;;12.07;7.20;;;16.90;99.90;;;;;;5067436;28;20821;-83
2022/12/22 14:55:23;;;;;;;13.57;7.38;;;16.80;99.90;;;;;;5029823;28;20879;-82
2022/12/22 14:58:25;;;;;;;10.30;6.57;;;16.80;99.90;;;;;;5047296;28;20388;-84
2022/12/22 15:01:34;;;;;;;11.60;6.90;;;16.90;99.90;;;;;;5043707;28;20891;-81
2022/12/22 15:04:19;;;;;;;12.98;6.90;;;16.90;99.90;;;;;;4949872;28;20390;-82
2022/12/22 15:06:48;;;;;;;11.60;6.70;;;16.90;99.90;;;;;;4966601;28;20391;-82
2022/12/22 15:09:15;;;;;;;10.32;6.18;;;16.80;99.90;;;;;;4963793;28;20590;-83
2022/12/22 15:11:48;;;;;;;12.50;6.20;;;16.70;99.90;;;;;;4969931;28;20402;-84
2022/12/22 15:14:18;;;;;;;10.18;6.80;;;16.70;99.90;;;;;;4970908;28;20390;-82
2022/12/22 15:16:46;;;;;;;9.35;6.22;;;16.60;99.90;;;;;;4969817;28;20395;-84
2022/12/22 15:19:21;;;;;;;9.30;6.18;;;16.60;99.90;;;;;;4969112;28;20413;-82
2022/12/22 15:21:49;;;;;;;10.68;6.00;;;16.60;99.90;;;;;;4964268;28;20410;-83
2022/12/22 15:24:18;;;;;;;9.48;5.82;;;16.60;99.90;;;;;;4969121;28;20424;-84
2022/12/22 15:26:45;;;;;;;8.57;5.82;;;16.50;99.90;;;;;;4968934;28;20398;-82
2022/12/22 15:29:13;;;;;;;10.75;6.05;;;16.50;99.90;;;;;;4968826;28;20394;-81
2022/12/22 15:31:42;;;;;;;12.97;7.00;;;16.40;99.90;;;;;;4961170;28;20430;-81
2022/12/22 15:34:27;;;;;;;11.10;7.00;;;16.40;99.90;;;;;;4985204;28;20743;-81
2022/12/22 15:36:54;;;;;;;10.60;7.13;;;16.40;99.90;;;;;;5061002;28;20966;-81
2022/12/22 15:39:23;;;;;;;8.07;6.57;;;16.40;99.90;;;;;;5071659;28;20404;-81
2022/12/22 15:41:50;;;;;;;11.27;7.10;;;16.40;99.90;;;;;;5067619;28;20414;-81
2022/12/22 15:44:17;;;;;;;11.77;6.85;;;16.40;99.90;;;;;;5071555;28;20383;-81
2022/12/22 15:46:56;;;;;;;8.55;6.30;;;16.40;99.90;;;;;;5067125;28;20904;-81
2022/12/22 15:49:26;;;;;;;9.77;6.30;;;16.50;99.90;;;;;;5049239;28;20398;-81
2022/12/22 15:52:00;;;;;;;10.20;6.60;;;16.60;99.90;;;;;;5064921;28;20381;-80
2022/12/22 15:54:29;;;;;;;11.55;6.93;;;16.60;99.90;;;;;;5068291;28;20405;-80
2022/12/22 15:56:56;;;;;;;13.32;6.75;;;16.60;99.90;;;;;;5064490;28;20388;-81
2022/12/22 15:59:26;;;;;;;10.80;6.75;;;16.50;99.90;;;;;;5066158;28;20749;-81
2022/12/22 16:01:57;;;;;;;10.27;6.70;;;16.50;99.90;;;;;;5061028;28;20467;-81
2022/12/22 16:04:27;;;;;;;10.55;6.50;;;16.50;99.90;;;;;;5063212;28;20393;-81
2022/12/22 16:06:54;;;;;;;13.27;8.53;;;16.50;99.90;;;;;;5063822;28;20396;-81
2022/12/22 16:09:30;;;;;;;12.20;10.23;;;16.50;99.90;;;;;;5068930;28;20384;-81
2022/12/22 16:11:57;;;;;;;13.45;10.75;;;16.50;99.90;;;;;;5089010;28;20367;-81
2022/12/22 16:14:24;;;;;;;12.82;10.38;;;16.50;99.90;;;;;;5068233;28;20395;-83
2022/12/22 16:16:51;;;;;;;13.10;10.13;;;16.40;99.90;;;;;;5060220;28;20413;-81
2022/12/22 16:19:19;;;;;;;11.73;10.23;;;16.40;99.90;;;;;;5057463;28;20400;-82
2022/12/22 16:21:48;;;;;;;10.85;9.80;;;16.40;99.90;;;;;;5063107;28;20476;-81
2022/12/22 16:24:28;;;;;;;12.43;10.18;;;16.40;99.90;;;;;;5077580;28;20429;-81
2022/12/22 16:26:56;;;;;;;12.50;10.45;;;16.40;99.90;;;;;;5060842;28;20889;-81
2022/12/22 16:29:23;;;;;;;13.88;11.13;;;16.40;99.90;;;;;;5065636;28;20399;-83
2022/12/22 16:31:51;;;;;;;12.27;10.63;;;16.30;99.90;;;;;;5067020;28;20790;-81
2022/12/22 16:34:18;;;;;;;12.25;10.38;;;16.40;99.90;;;;;;5060850;28;20402;-82
2022/12/22 16:36:45;;;;;;;11.97;10.37;;;16.40;99.90;;;;;;5060632;28;20386;-81
2022/12/22 16:39:12;;;;;;;12.03;10.07;;;16.40;99.90;;;;;;5057785;28;20461;-81
2022/12/22 16:41:39;;;;;;;11.65;10.15;;;16.50;99.90;;;;;;5068520;28;20782;-82
2022/12/22 16:44:08;;;;;;;9.38;8.35;;;16.50;99.90;;;;;;5071043;28;20374;-82
2022/12/22 16:46:39;;;;;;;10.40;9.30;;;16.50;99.90;;;;;;5067871;28;20390;-81
2022/12/22 16:49:08;;;;;;;11.43;9.10;;;16.50;99.90;;;;;;5070158;28;20389;-82